sensor_id;sensor_type;location;lat;lon;timestamp;temperature;humidity
75321;DHT22;63920;52.130;5.584;2022-10-15T00:02:09;12.20;96.10
75321;DHT22;63920;52.130;5.584;2022-10-15T00:04:35;12.20;95.70
75321;DHT22;63920;52.130;5.584;2022-10-15T00:07:01;12.30;95.70
75321;DHT22;63920;52.130;5.584;2022-10-15T00:09:27;12.30;95.80
75321;DHT22;63920;52.130;5.584;2022-10-15T00:11:53;12.20;95.80
75321;DHT22;63920;52.130;5.584;2022-10-15T00:14:18;12.20;95.60
75321;DHT22;63920;52.130;5.584;2022-10-15T00:16:44;12.20;95.70
75321;DHT22;63920;52.130;5.584;2022-10-15T00:19:10;12.20;95.80
75321;DHT22;63920;52.130;5.584;2022-10-15T00:21:36;12.20;95.80
75321;DHT22;63920;52.130;5.584;2022-10-15T00:24:03;12.20;95.90
75321;DHT22;63920;52.130;5.584;2022-10-15T00:26:29;12.20;95.90
75321;DHT22;63920;52.130;5.584;2022-10-15T00:28:57;12.20;95.90
75321;DHT22;63920;52.130;5.584;2022-10-15T00:31:24;12.20;95.90
75321;DHT22;63920;52.130;5.584;2022-10-15T00:33:52;12.20;95.90
75321;DHT22;63920;52.130;5.584;2022-10-15T00:36:20;12.20;95.80
75321;DHT22;63920;52.130;5.584;2022-10-15T00:38:46;12.20;95.90
75321;DHT22;63920;52.130;5.584;2022-10-15T00:41:15;12.20;96.00
75321;DHT22;63920;52.130;5.584;2022-10-15T00:43:54;12.30;96.10
75321;DHT22;63920;52.130;5.584;2022-10-15T00:48:47;12.30;95.90
75321;DHT22;63920;52.130;5.584;2022-10-15T00:51:16;12.30;96.00
75321;DHT22;63920;52.130;5.584;2022-10-15T00:53:42;12.30;96.00
75321;DHT22;63920;52.130;5.584;2022-10-15T00:56:08;12.30;96.00
75321;DHT22;63920;52.130;5.584;2022-10-15T00:58:34;12.30;96.00
75321;DHT22;63920;52.130;5.584;2022-10-15T01:01:01;12.30;95.90
75321;DHT22;63920;52.130;5.584;2022-10-15T01:03:27;12.30;95.90
75321;DHT22;63920;52.130;5.584;2022-10-15T01:05:53;12.30;95.90
75321;DHT22;63920;52.130;5.584;2022-10-15T01:08:19;12.30;96.00
75321;DHT22;63920;52.130;5.584;2022-10-15T01:10:59;12.20;96.10
75321;DHT22;63920;52.130;5.584;2022-10-15T01:13:34;12.30;96.10
75321;DHT22;63920;52.130;5.584;2022-10-15T01:18:56;12.30;96.10
75321;DHT22;63920;52.130;5.584;2022-10-15T01:24:41;12.30;96.40
75321;DHT22;63920;52.130;5.584;2022-10-15T01:27:21;12.30;96.40
75321;DHT22;63920;52.130;5.584;2022-10-15T01:32:52;12.30;96.50
75321;DHT22;63920;52.130;5.584;2022-10-15T01:43:42;12.30;96.30
75321;DHT22;63920;52.130;5.584;2022-10-15T01:46:17;12.30;96.30
75321;DHT22;63920;52.130;5.584;2022-10-15T01:48:43;12.30;96.30
75321;DHT22;63920;52.130;5.584;2022-10-15T01:51:10;12.30;96.30
75321;DHT22;63920;52.130;5.584;2022-10-15T01:53:37;12.30;96.30
75321;DHT22;63920;52.130;5.584;2022-10-15T01:56:07;12.30;96.40
75321;DHT22;63920;52.130;5.584;2022-10-15T01:58:37;12.20;96.40
75321;DHT22;63920;52.130;5.584;2022-10-15T02:01:04;12.20;96.50
75321;DHT22;63920;52.130;5.584;2022-10-15T02:03:30;12.20;96.50
75321;DHT22;63920;52.130;5.584;2022-10-15T02:06:18;12.20;96.50
75321;DHT22;63920;52.130;5.584;2022-10-15T02:11:24;12.10;96.70
75321;DHT22;63920;52.130;5.584;2022-10-15T02:13:59;12.20;96.80
75321;DHT22;63920;52.130;5.584;2022-10-15T02:16:43;12.20;96.80
75321;DHT22;63920;52.130;5.584;2022-10-15T02:19:17;12.20;96.90
75321;DHT22;63920;52.130;5.584;2022-10-15T02:21:49;12.20;96.80
75321;DHT22;63920;52.130;5.584;2022-10-15T02:24:21;12.20;96.90
75321;DHT22;63920;52.130;5.584;2022-10-15T02:26:50;12.20;97.00
75321;DHT22;63920;52.130;5.584;2022-10-15T02:29:19;12.20;97.10
75321;DHT22;63920;52.130;5.584;2022-10-15T02:31:46;12.20;97.10
75321;DHT22;63920;52.130;5.584;2022-10-15T02:34:17;12.20;97.10
75321;DHT22;63920;52.130;5.584;2022-10-15T02:36:44;12.30;97.20
75321;DHT22;63920;52.130;5.584;2022-10-15T02:39:13;12.30;97.20
75321;DHT22;63920;52.130;5.584;2022-10-15T02:41:41;12.30;97.20
75321;DHT22;63920;52.130;5.584;2022-10-15T02:44:07;12.30;97.10
75321;DHT22;63920;52.130;5.584;2022-10-15T02:46:33;12.30;97.10
75321;DHT22;63920;52.130;5.584;2022-10-15T02:48:58;12.30;97.20
75321;DHT22;63920;52.130;5.584;2022-10-15T02:51:24;12.30;97.20
75321;DHT22;63920;52.130;5.584;2022-10-15T02:53:49;12.30;97.20
75321;DHT22;63920;52.130;5.584;2022-10-15T02:56:15;12.40;97.20
75321;DHT22;63920;52.130;5.584;2022-10-15T02:58:41;12.40;97.20
75321;DHT22;63920;52.130;5.584;2022-10-15T03:01:06;12.40;97.10
75321;DHT22;63920;52.130;5.584;2022-10-15T03:03:32;12.40;97.10
75321;DHT22;63920;52.130;5.584;2022-10-15T03:05:58;12.40;97.00
75321;DHT22;63920;52.130;5.584;2022-10-15T03:08:23;12.40;97.00
75321;DHT22;63920;52.130;5.584;2022-10-15T03:10:50;12.40;97.00
75321;DHT22;63920;52.130;5.584;2022-10-15T03:13:15;12.40;97.00
75321;DHT22;63920;52.130;5.584;2022-10-15T03:15:41;12.50;97.00
75321;DHT22;63920;52.130;5.584;2022-10-15T03:18:07;12.50;96.80
75321;DHT22;63920;52.130;5.584;2022-10-15T03:20:33;12.40;96.90
75321;DHT22;63920;52.130;5.584;2022-10-15T03:22:58;12.40;96.80
75321;DHT22;63920;52.130;5.584;2022-10-15T03:25:24;12.50;96.80
75321;DHT22;63920;52.130;5.584;2022-10-15T03:27:49;12.40;96.80
75321;DHT22;63920;52.130;5.584;2022-10-15T03:30:17;12.40;96.80
75321;DHT22;63920;52.130;5.584;2022-10-15T03:32:43;12.30;96.60
75321;DHT22;63920;52.130;5.584;2022-10-15T03:35:08;12.40;96.70
75321;DHT22;63920;52.130;5.584;2022-10-15T03:37:34;12.30;96.60
75321;DHT22;63920;52.130;5.584;2022-10-15T03:39:59;12.30;96.60
75321;DHT22;63920;52.130;5.584;2022-10-15T03:42:25;12.30;96.60
75321;DHT22;63920;52.130;5.584;2022-10-15T03:44:50;12.30;96.50
75321;DHT22;63920;52.130;5.584;2022-10-15T03:47:16;12.30;96.50
75321;DHT22;63920;52.130;5.584;2022-10-15T03:49:41;12.20;96.80
75321;DHT22;63920;52.130;5.584;2022-10-15T03:52:07;12.20;96.50
75321;DHT22;63920;52.130;5.584;2022-10-15T03:54:33;12.20;96.40
75321;DHT22;63920;52.130;5.584;2022-10-15T03:56:58;12.20;96.40
75321;DHT22;63920;52.130;5.584;2022-10-15T03:59:24;12.20;96.20
75321;DHT22;63920;52.130;5.584;2022-10-15T04:01:49;12.20;96.40
75321;DHT22;63920;52.130;5.584;2022-10-15T04:04:15;12.20;96.40
75321;DHT22;63920;52.130;5.584;2022-10-15T04:06:40;12.10;96.40
75321;DHT22;63920;52.130;5.584;2022-10-15T04:09:06;12.10;96.60
75321;DHT22;63920;52.130;5.584;2022-10-15T04:11:31;12.20;96.60
75321;DHT22;63920;52.130;5.584;2022-10-15T04:13:57;12.10;96.50
75321;DHT22;63920;52.130;5.584;2022-10-15T04:16:22;12.20;96.40
75321;DHT22;63920;52.130;5.584;2022-10-15T04:18:48;12.10;96.30
75321;DHT22;63920;52.130;5.584;2022-10-15T04:21:13;12.10;96.40
75321;DHT22;63920;52.130;5.584;2022-10-15T04:23:39;12.10;96.40
75321;DHT22;63920;52.130;5.584;2022-10-15T04:26:05;12.10;96.50
75321;DHT22;63920;52.130;5.584;2022-10-15T04:28:31;12.10;96.40
75321;DHT22;63920;52.130;5.584;2022-10-15T04:30:58;12.10;96.50
75321;DHT22;63920;52.130;5.584;2022-10-15T04:33:24;12.10;96.50
75321;DHT22;63920;52.130;5.584;2022-10-15T04:36:06;12.10;96.50
75321;DHT22;63920;52.130;5.584;2022-10-15T04:38:33;12.10;96.50
75321;DHT22;63920;52.130;5.584;2022-10-15T04:41:06;12.10;97.00
75321;DHT22;63920;52.130;5.584;2022-10-15T04:43:32;12.10;96.60
75321;DHT22;63920;52.130;5.584;2022-10-15T04:45:59;12.10;96.70
75321;DHT22;63920;52.130;5.584;2022-10-15T04:48:30;12.10;96.70
75321;DHT22;63920;52.130;5.584;2022-10-15T04:51:23;12.00;96.60
75321;DHT22;63920;52.130;5.584;2022-10-15T04:53:48;12.00;96.60
75321;DHT22;63920;52.130;5.584;2022-10-15T04:56:18;12.00;96.70
75321;DHT22;63920;52.130;5.584;2022-10-15T04:58:45;12.00;96.70
75321;DHT22;63920;52.130;5.584;2022-10-15T05:01:14;12.10;96.80
75321;DHT22;63920;52.130;5.584;2022-10-15T05:03:42;12.10;96.80
75321;DHT22;63920;52.130;5.584;2022-10-15T05:06:19;12.10;96.90
75321;DHT22;63920;52.130;5.584;2022-10-15T05:08:45;12.10;97.00
75321;DHT22;63920;52.130;5.584;2022-10-15T05:11:20;12.10;97.00
75321;DHT22;63920;52.130;5.584;2022-10-15T05:13:46;12.00;97.00
75321;DHT22;63920;52.130;5.584;2022-10-15T05:16:18;12.10;97.10
75321;DHT22;63920;52.130;5.584;2022-10-15T05:18:47;12.10;97.20
75321;DHT22;63920;52.130;5.584;2022-10-15T05:21:13;12.10;97.20
75321;DHT22;63920;52.130;5.584;2022-10-15T05:23:38;12.10;97.20
75321;DHT22;63920;52.130;5.584;2022-10-15T05:26:10;12.20;97.20
75321;DHT22;63920;52.130;5.584;2022-10-15T05:28:36;12.20;97.20
75321;DHT22;63920;52.130;5.584;2022-10-15T05:31:07;12.20;97.10
75321;DHT22;63920;52.130;5.584;2022-10-15T05:33:33;12.20;97.10
75321;DHT22;63920;52.130;5.584;2022-10-15T05:36:12;12.20;97.10
75321;DHT22;63920;52.130;5.584;2022-10-15T05:38:40;12.20;97.20
75321;DHT22;63920;52.130;5.584;2022-10-15T05:41:06;12.30;97.30
75321;DHT22;63920;52.130;5.584;2022-10-15T05:43:31;12.30;97.30
75321;DHT22;63920;52.130;5.584;2022-10-15T05:45:57;12.30;97.30
75321;DHT22;63920;52.130;5.584;2022-10-15T05:48:23;12.20;97.40
75321;DHT22;63920;52.130;5.584;2022-10-15T05:50:48;12.20;97.50
75321;DHT22;63920;52.130;5.584;2022-10-15T05:53:14;12.20;97.60
75321;DHT22;63920;52.130;5.584;2022-10-15T05:55:39;12.20;97.70
75321;DHT22;63920;52.130;5.584;2022-10-15T05:58:05;12.30;97.90
75321;DHT22;63920;52.130;5.584;2022-10-15T06:00:31;12.30;97.90
75321;DHT22;63920;52.130;5.584;2022-10-15T06:02:57;12.30;98.00
75321;DHT22;63920;52.130;5.584;2022-10-15T06:05:23;12.30;98.10
75321;DHT22;63920;52.130;5.584;2022-10-15T06:07:49;12.40;98.20
75321;DHT22;63920;52.130;5.584;2022-10-15T06:10:14;12.30;98.20
75321;DHT22;63920;52.130;5.584;2022-10-15T06:12:41;12.40;98.40
75321;DHT22;63920;52.130;5.584;2022-10-15T06:15:07;12.30;98.30
75321;DHT22;63920;52.130;5.584;2022-10-15T06:17:32;12.30;98.30
75321;DHT22;63920;52.130;5.584;2022-10-15T06:19:58;12.30;98.30
75321;DHT22;63920;52.130;5.584;2022-10-15T06:22:24;12.30;98.30
75321;DHT22;63920;52.130;5.584;2022-10-15T06:24:49;12.40;98.20
75321;DHT22;63920;52.130;5.584;2022-10-15T06:27:15;12.20;98.20
75321;DHT22;63920;52.130;5.584;2022-10-15T06:29:40;12.30;98.30
75321;DHT22;63920;52.130;5.584;2022-10-15T06:32:10;12.30;98.40
75321;DHT22;63920;52.130;5.584;2022-10-15T06:34:36;12.40;98.30
75321;DHT22;63920;52.130;5.584;2022-10-15T06:37:01;12.40;98.20
75321;DHT22;63920;52.130;5.584;2022-10-15T06:39:27;12.40;98.20
75321;DHT22;63920;52.130;5.584;2022-10-15T06:41:52;12.30;98.30
75321;DHT22;63920;52.130;5.584;2022-10-15T06:44:18;12.30;98.30
75321;DHT22;63920;52.130;5.584;2022-10-15T06:46:43;12.40;98.30
75321;DHT22;63920;52.130;5.584;2022-10-15T06:49:12;12.40;98.30
75321;DHT22;63920;52.130;5.584;2022-10-15T06:51:37;12.40;98.30
75321;DHT22;63920;52.130;5.584;2022-10-15T06:54:03;12.40;98.30
75321;DHT22;63920;52.130;5.584;2022-10-15T06:56:29;12.40;98.30
75321;DHT22;63920;52.130;5.584;2022-10-15T06:58:54;12.40;98.40
75321;DHT22;63920;52.130;5.584;2022-10-15T07:01:20;12.40;98.30
75321;DHT22;63920;52.130;5.584;2022-10-15T07:03:49;12.40;98.40
75321;DHT22;63920;52.130;5.584;2022-10-15T07:06:15;12.40;98.50
75321;DHT22;63920;52.130;5.584;2022-10-15T07:08:41;12.50;98.50
75321;DHT22;63920;52.130;5.584;2022-10-15T07:11:07;12.50;98.40
75321;DHT22;63920;52.130;5.584;2022-10-15T07:13:34;12.50;98.30
75321;DHT22;63920;52.130;5.584;2022-10-15T07:16:08;12.50;98.70
75321;DHT22;63920;52.130;5.584;2022-10-15T07:18:34;12.60;98.50
75321;DHT22;63920;52.130;5.584;2022-10-15T07:21:01;12.60;98.30
75321;DHT22;63920;52.130;5.584;2022-10-15T07:23:26;12.60;98.60
75321;DHT22;63920;52.130;5.584;2022-10-15T07:25:53;12.60;98.30
75321;DHT22;63920;52.130;5.584;2022-10-15T07:28:18;12.70;98.30
75321;DHT22;63920;52.130;5.584;2022-10-15T07:30:44;12.70;98.20
75321;DHT22;63920;52.130;5.584;2022-10-15T07:33:09;12.70;98.20
75321;DHT22;63920;52.130;5.584;2022-10-15T07:35:36;12.70;98.20
75321;DHT22;63920;52.130;5.584;2022-10-15T07:38:02;12.80;98.20
75321;DHT22;63920;52.130;5.584;2022-10-15T07:40:28;12.80;98.20
75321;DHT22;63920;52.130;5.584;2022-10-15T07:42:55;12.80;98.20
75321;DHT22;63920;52.130;5.584;2022-10-15T07:45:21;12.90;98.60
75321;DHT22;63920;52.130;5.584;2022-10-15T07:47:47;12.90;98.30
75321;DHT22;63920;52.130;5.584;2022-10-15T07:50:12;12.90;98.20
75321;DHT22;63920;52.130;5.584;2022-10-15T07:52:38;13.00;98.20
75321;DHT22;63920;52.130;5.584;2022-10-15T07:55:03;13.00;98.10
75321;DHT22;63920;52.130;5.584;2022-10-15T07:57:29;13.00;98.10
75321;DHT22;63920;52.130;5.584;2022-10-15T07:59:55;13.10;98.20
75321;DHT22;63920;52.130;5.584;2022-10-15T08:02:20;13.10;98.00
75321;DHT22;63920;52.130;5.584;2022-10-15T08:04:46;13.10;98.00
75321;DHT22;63920;52.130;5.584;2022-10-15T08:07:12;13.10;98.00
75321;DHT22;63920;52.130;5.584;2022-10-15T08:09:37;13.20;98.00
75321;DHT22;63920;52.130;5.584;2022-10-15T08:12:04;13.20;97.80
75321;DHT22;63920;52.130;5.584;2022-10-15T08:14:32;13.20;97.90
75321;DHT22;63920;52.130;5.584;2022-10-15T08:16:57;13.20;97.80
75321;DHT22;63920;52.130;5.584;2022-10-15T08:19:23;13.20;97.90
75321;DHT22;63920;52.130;5.584;2022-10-15T08:21:48;13.30;97.90
75321;DHT22;63920;52.130;5.584;2022-10-15T08:24:14;13.30;97.90
75321;DHT22;63920;52.130;5.584;2022-10-15T08:26:39;13.40;97.80
75321;DHT22;63920;52.130;5.584;2022-10-15T08:29:05;13.40;97.80
75321;DHT22;63920;52.130;5.584;2022-10-15T08:31:30;13.50;97.70
75321;DHT22;63920;52.130;5.584;2022-10-15T08:33:59;13.50;97.60
75321;DHT22;63920;52.130;5.584;2022-10-15T08:36:25;13.60;97.20
75321;DHT22;63920;52.130;5.584;2022-10-15T08:38:50;13.60;97.20
75321;DHT22;63920;52.130;5.584;2022-10-15T08:41:31;13.60;97.30
75321;DHT22;63920;52.130;5.584;2022-10-15T08:43:58;13.70;97.20
75321;DHT22;63920;52.130;5.584;2022-10-15T08:46:30;13.70;97.10
75321;DHT22;63920;52.130;5.584;2022-10-15T08:48:58;13.70;97.00
75321;DHT22;63920;52.130;5.584;2022-10-15T08:51:37;13.70;97.00
75321;DHT22;63920;52.130;5.584;2022-10-15T08:54:05;13.70;96.80
75321;DHT22;63920;52.130;5.584;2022-10-15T08:56:37;13.70;97.20
75321;DHT22;63920;52.130;5.584;2022-10-15T09:01:50;13.80;96.80
75321;DHT22;63920;52.130;5.584;2022-10-15T09:06:56;13.90;96.30
75321;DHT22;63920;52.130;5.584;2022-10-15T09:14:58;14.10;96.40
75321;DHT22;63920;52.130;5.584;2022-10-15T09:17:28;14.10;96.20
75321;DHT22;63920;52.130;5.584;2022-10-15T09:19:57;14.10;96.20
75321;DHT22;63920;52.130;5.584;2022-10-15T09:22:28;14.10;96.10
75321;DHT22;63920;52.130;5.584;2022-10-15T09:24:55;14.20;96.10
75321;DHT22;63920;52.130;5.584;2022-10-15T09:27:30;14.20;96.10
75321;DHT22;63920;52.130;5.584;2022-10-15T09:32:43;14.20;96.10
75321;DHT22;63920;52.130;5.584;2022-10-15T09:38:05;14.50;96.00
75321;DHT22;63920;52.130;5.584;2022-10-15T09:43:30;14.60;95.70
75321;DHT22;63920;52.130;5.584;2022-10-15T09:46:00;14.60;95.60
75321;DHT22;63920;52.130;5.584;2022-10-15T09:48:27;14.60;95.40
75321;DHT22;63920;52.130;5.584;2022-10-15T09:50:59;14.60;95.40
75321;DHT22;63920;52.130;5.584;2022-10-15T09:56:25;14.70;95.20
75321;DHT22;63920;52.130;5.584;2022-10-15T09:58:54;14.70;95.20
75321;DHT22;63920;52.130;5.584;2022-10-15T10:01:22;14.70;94.90
75321;DHT22;63920;52.130;5.584;2022-10-15T10:03:52;14.80;95.00
75321;DHT22;63920;52.130;5.584;2022-10-15T10:06:19;14.80;95.10
75321;DHT22;63920;52.130;5.584;2022-10-15T10:08:55;14.90;94.90
75321;DHT22;63920;52.130;5.584;2022-10-15T10:11:22;14.80;94.90
75321;DHT22;63920;52.130;5.584;2022-10-15T10:16:21;14.80;95.20
75321;DHT22;63920;52.130;5.584;2022-10-15T10:21:32;14.90;95.20
75321;DHT22;63920;52.130;5.584;2022-10-15T10:24:18;14.90;95.30
75321;DHT22;63920;52.130;5.584;2022-10-15T10:26:46;14.90;95.20
75321;DHT22;63920;52.130;5.584;2022-10-15T10:29:18;14.90;95.60
75321;DHT22;63920;52.130;5.584;2022-10-15T10:31:45;14.90;95.70
75321;DHT22;63920;52.130;5.584;2022-10-15T10:34:17;14.90;95.70
75321;DHT22;63920;52.130;5.584;2022-10-15T10:36:50;14.80;95.90
75321;DHT22;63920;52.130;5.584;2022-10-15T10:39:30;14.80;96.00
75321;DHT22;63920;52.130;5.584;2022-10-15T10:42:03;14.80;96.10
75321;DHT22;63920;52.130;5.584;2022-10-15T10:44:40;14.80;96.20
75321;DHT22;63920;52.130;5.584;2022-10-15T10:49:49;14.80;96.50
75321;DHT22;63920;52.130;5.584;2022-10-15T10:52:35;14.80;96.60
75321;DHT22;63920;52.130;5.584;2022-10-15T10:55:05;14.70;96.70
75321;DHT22;63920;52.130;5.584;2022-10-15T11:02:56;14.60;96.90
75321;DHT22;63920;52.130;5.584;2022-10-15T11:05:26;14.60;97.20
75321;DHT22;63920;52.130;5.584;2022-10-15T11:14:04;14.60;97.20
75321;DHT22;63920;52.130;5.584;2022-10-15T11:25:08;14.60;97.70
75321;DHT22;63920;52.130;5.584;2022-10-15T11:36:14;14.70;98.00
75321;DHT22;63920;52.130;5.584;2022-10-15T11:48:06;14.70;98.00
75321;DHT22;63920;52.130;5.584;2022-10-15T11:50:40;14.70;98.10
75321;DHT22;63920;52.130;5.584;2022-10-15T11:58:38;14.80;98.20
75321;DHT22;63920;52.130;5.584;2022-10-15T12:01:14;14.90;98.30
75321;DHT22;63920;52.130;5.584;2022-10-15T12:04:11;14.90;98.40
75321;DHT22;63920;52.130;5.584;2022-10-15T12:06:44;14.90;98.40
75321;DHT22;63920;52.130;5.584;2022-10-15T12:09:16;15.00;98.50
75321;DHT22;63920;52.130;5.584;2022-10-15T12:11:52;15.00;98.60
75321;DHT22;63920;52.130;5.584;2022-10-15T12:14:30;15.00;98.60
75321;DHT22;63920;52.130;5.584;2022-10-15T12:17:30;15.00;98.50
75321;DHT22;63920;52.130;5.584;2022-10-15T12:20:10;15.00;98.50
75321;DHT22;63920;52.130;5.584;2022-10-15T12:22:39;15.00;98.50
75321;DHT22;63920;52.130;5.584;2022-10-15T12:28:03;15.10;98.70
75321;DHT22;63920;52.130;5.584;2022-10-15T12:30:34;15.10;98.90
75321;DHT22;63920;52.130;5.584;2022-10-15T12:33:03;15.20;98.80
75321;DHT22;63920;52.130;5.584;2022-10-15T12:35:38;15.30;98.80
75321;DHT22;63920;52.130;5.584;2022-10-15T12:38:26;15.20;98.80
75321;DHT22;63920;52.130;5.584;2022-10-15T12:41:03;15.30;98.80
75321;DHT22;63920;52.130;5.584;2022-10-15T12:43:30;15.30;98.90
75321;DHT22;63920;52.130;5.584;2022-10-15T12:46:02;15.40;98.70
75321;DHT22;63920;52.130;5.584;2022-10-15T12:48:48;15.40;98.60
75321;DHT22;63920;52.130;5.584;2022-10-15T12:53:51;15.40;98.70
75321;DHT22;63920;52.130;5.584;2022-10-15T12:59:00;15.40;98.60
75321;DHT22;63920;52.130;5.584;2022-10-15T13:04:11;15.40;98.70
75321;DHT22;63920;52.130;5.584;2022-10-15T13:06:37;15.50;98.80
75321;DHT22;63920;52.130;5.584;2022-10-15T13:09:19;15.50;98.80
75321;DHT22;63920;52.130;5.584;2022-10-15T13:14:37;15.60;98.30
75321;DHT22;63920;52.130;5.584;2022-10-15T13:17:17;15.60;98.60
75321;DHT22;63920;52.130;5.584;2022-10-15T13:19:55;15.60;98.60
75321;DHT22;63920;52.130;5.584;2022-10-15T13:22:26;15.70;98.40
75321;DHT22;63920;52.130;5.584;2022-10-15T13:24:52;15.70;98.20
75321;DHT22;63920;52.130;5.584;2022-10-15T13:27:25;15.70;98.20
75321;DHT22;63920;52.130;5.584;2022-10-15T13:30:00;15.70;98.10
75321;DHT22;63920;52.130;5.584;2022-10-15T13:32:31;15.70;97.90
75321;DHT22;63920;52.130;5.584;2022-10-15T13:34:59;15.70;97.80
75321;DHT22;63920;52.130;5.584;2022-10-15T13:37:40;15.70;97.80
75321;DHT22;63920;52.130;5.584;2022-10-15T13:40:15;15.70;97.60
75321;DHT22;63920;52.130;5.584;2022-10-15T13:43:03;15.80;97.50
75321;DHT22;63920;52.130;5.584;2022-10-15T13:45:30;15.80;97.50
75321;DHT22;63920;52.130;5.584;2022-10-15T13:47:57;15.80;97.50
75321;DHT22;63920;52.130;5.584;2022-10-15T13:52:53;15.80;97.30
75321;DHT22;63920;52.130;5.584;2022-10-15T13:55:23;15.80;97.30
75321;DHT22;63920;52.130;5.584;2022-10-15T13:57:51;15.80;97.20
75321;DHT22;63920;52.130;5.584;2022-10-15T14:00:24;15.80;97.00
75321;DHT22;63920;52.130;5.584;2022-10-15T14:03:22;15.80;97.20
75321;DHT22;63920;52.130;5.584;2022-10-15T14:05:50;15.90;97.10
75321;DHT22;63920;52.130;5.584;2022-10-15T14:08:27;15.90;96.90
75321;DHT22;63920;52.130;5.584;2022-10-15T14:10:56;15.90;96.80
75321;DHT22;63920;52.130;5.584;2022-10-15T14:13:22;15.80;96.70
75321;DHT22;63920;52.130;5.584;2022-10-15T14:15:58;16.00;96.60
75321;DHT22;63920;52.130;5.584;2022-10-15T14:18:35;15.90;96.50
75321;DHT22;63920;52.130;5.584;2022-10-15T14:21:02;15.90;96.20
75321;DHT22;63920;52.130;5.584;2022-10-15T14:23:28;15.90;96.20
75321;DHT22;63920;52.130;5.584;2022-10-15T14:25:57;15.90;96.10
75321;DHT22;63920;52.130;5.584;2022-10-15T14:28:25;15.90;96.20
75321;DHT22;63920;52.130;5.584;2022-10-15T14:30:51;16.00;96.20
75321;DHT22;63920;52.130;5.584;2022-10-15T14:36:07;16.00;95.90
75321;DHT22;63920;52.130;5.584;2022-10-15T14:38:33;16.00;95.90
75321;DHT22;63920;52.130;5.584;2022-10-15T14:41:03;16.00;95.80
75321;DHT22;63920;52.130;5.584;2022-10-15T14:43:35;16.00;95.60
75321;DHT22;63920;52.130;5.584;2022-10-15T14:46:04;16.00;95.20
75321;DHT22;63920;52.130;5.584;2022-10-15T14:48:35;16.00;95.10
75321;DHT22;63920;52.130;5.584;2022-10-15T14:51:07;16.10;95.00
75321;DHT22;63920;52.130;5.584;2022-10-15T14:53:38;16.10;94.40
75321;DHT22;63920;52.130;5.584;2022-10-15T14:56:18;16.10;94.00
75321;DHT22;63920;52.130;5.584;2022-10-15T14:58:53;16.00;94.00
75321;DHT22;63920;52.130;5.584;2022-10-15T15:01:21;16.00;93.90
75321;DHT22;63920;52.130;5.584;2022-10-15T15:03:50;15.90;93.60
75321;DHT22;63920;52.130;5.584;2022-10-15T15:06:16;15.90;93.50
75321;DHT22;63920;52.130;5.584;2022-10-15T15:08:41;15.90;93.60
75321;DHT22;63920;52.130;5.584;2022-10-15T15:11:12;15.80;93.30
75321;DHT22;63920;52.130;5.584;2022-10-15T15:13:41;15.80;93.20
75321;DHT22;63920;52.130;5.584;2022-10-15T15:29:18;15.80;92.40
75321;DHT22;63920;52.130;5.584;2022-10-15T15:31:44;15.70;92.20
75321;DHT22;63920;52.130;5.584;2022-10-15T15:34:10;15.70;92.00
75321;DHT22;63920;52.130;5.584;2022-10-15T15:36:35;15.60;92.00
75321;DHT22;63920;52.130;5.584;2022-10-15T15:39:01;15.50;91.60
75321;DHT22;63920;52.130;5.584;2022-10-15T15:41:26;15.40;91.50
75321;DHT22;63920;52.130;5.584;2022-10-15T15:43:52;15.40;90.90
75321;DHT22;63920;52.130;5.584;2022-10-15T15:46:19;15.40;91.20
75321;DHT22;63920;52.130;5.584;2022-10-15T15:48:45;15.40;90.70
75321;DHT22;63920;52.130;5.584;2022-10-15T15:51:21;15.40;90.90
75321;DHT22;63920;52.130;5.584;2022-10-15T15:53:48;15.30;90.50
75321;DHT22;63920;52.130;5.584;2022-10-15T15:56:14;15.30;90.40
75321;DHT22;63920;52.130;5.584;2022-10-15T15:58:39;15.30;90.30
75321;DHT22;63920;52.130;5.584;2022-10-15T16:01:05;15.30;90.70
75321;DHT22;63920;52.130;5.584;2022-10-15T16:03:30;15.20;90.80
75321;DHT22;63920;52.130;5.584;2022-10-15T16:05:56;15.20;90.50
75321;DHT22;63920;52.130;5.584;2022-10-15T16:08:21;15.10;90.50
75321;DHT22;63920;52.130;5.584;2022-10-15T16:10:47;15.10;90.80
75321;DHT22;63920;52.130;5.584;2022-10-15T16:13:12;15.00;91.00
75321;DHT22;63920;52.130;5.584;2022-10-15T16:15:38;15.00;91.00
75321;DHT22;63920;52.130;5.584;2022-10-15T16:18:04;14.90;91.10
75321;DHT22;63920;52.130;5.584;2022-10-15T16:20:29;14.80;91.20
75321;DHT22;63920;52.130;5.584;2022-10-15T16:22:55;14.80;91.30
75321;DHT22;63920;52.130;5.584;2022-10-15T16:25:21;14.80;91.40
75321;DHT22;63920;52.130;5.584;2022-10-15T16:27:47;14.80;91.40
75321;DHT22;63920;52.130;5.584;2022-10-15T16:30:16;14.80;91.50
75321;DHT22;63920;52.130;5.584;2022-10-15T16:32:42;14.80;91.50
75321;DHT22;63920;52.130;5.584;2022-10-15T16:35:08;14.70;91.50
75321;DHT22;63920;52.130;5.584;2022-10-15T16:37:34;14.70;91.70
75321;DHT22;63920;52.130;5.584;2022-10-15T16:39:59;14.70;91.80
75321;DHT22;63920;52.130;5.584;2022-10-15T16:42:25;14.70;91.70
75321;DHT22;63920;52.130;5.584;2022-10-15T16:44:50;14.60;91.70
75321;DHT22;63920;52.130;5.584;2022-10-15T16:47:17;14.50;92.00
75321;DHT22;63920;52.130;5.584;2022-10-15T16:49:42;14.50;92.20
75321;DHT22;63920;52.130;5.584;2022-10-15T16:52:08;14.40;92.20
75321;DHT22;63920;52.130;5.584;2022-10-15T16:54:34;14.40;92.40
75321;DHT22;63920;52.130;5.584;2022-10-15T16:57:00;14.20;92.50
75321;DHT22;63920;52.130;5.584;2022-10-15T16:59:25;14.10;92.80
75321;DHT22;63920;52.130;5.584;2022-10-15T17:01:51;14.10;92.90
75321;DHT22;63920;52.130;5.584;2022-10-15T17:04:16;14.00;93.00
75321;DHT22;63920;52.130;5.584;2022-10-15T17:06:42;14.10;93.20
75321;DHT22;63920;52.130;5.584;2022-10-15T17:09:08;14.00;93.30
75321;DHT22;63920;52.130;5.584;2022-10-15T17:11:36;14.10;93.20
75321;DHT22;63920;52.130;5.584;2022-10-15T17:14:08;14.00;93.00
75321;DHT22;63920;52.130;5.584;2022-10-15T17:16:49;13.90;93.00
75321;DHT22;63920;52.130;5.584;2022-10-15T17:19:18;14.00;93.20
75321;DHT22;63920;52.130;5.584;2022-10-15T17:21:44;13.80;93.20
75321;DHT22;63920;52.130;5.584;2022-10-15T17:24:11;13.80;93.20
75321;DHT22;63920;52.130;5.584;2022-10-15T17:26:38;13.80;93.30
75321;DHT22;63920;52.130;5.584;2022-10-15T17:29:16;13.70;93.40
75321;DHT22;63920;52.130;5.584;2022-10-15T17:31:45;13.60;93.40
75321;DHT22;63920;52.130;5.584;2022-10-15T17:34:11;13.60;93.40
75321;DHT22;63920;52.130;5.584;2022-10-15T17:36:45;13.60;93.40
75321;DHT22;63920;52.130;5.584;2022-10-15T17:39:34;13.60;93.40
75321;DHT22;63920;52.130;5.584;2022-10-15T17:42:00;13.60;93.40
75321;DHT22;63920;52.130;5.584;2022-10-15T17:44:26;13.50;93.20
75321;DHT22;63920;52.130;5.584;2022-10-15T17:46:51;13.60;93.30
75321;DHT22;63920;52.130;5.584;2022-10-15T17:49:17;13.60;93.20